createdAt,value
2023-03-19T00:02:52.058Z,19.87
2023-03-19T00:06:54.797Z,14.80
2023-03-19T00:10:56.639Z,15.77
2023-03-19T00:14:58.468Z,16.60
2023-03-19T00:19:00.301Z,15.63
2023-03-19T00:23:02.085Z,16.67
2023-03-19T00:27:04.323Z,15.47
2023-03-19T00:31:12.190Z,14.70
2023-03-19T00:35:14.827Z,14.60
2023-03-19T00:39:16.706Z,16.10
2023-03-19T00:43:18.549Z,15.83
2023-03-19T00:47:20.513Z,16.23
2023-03-19T00:51:23.665Z,16.03
2023-03-19T00:55:27.357Z,16.83
2023-03-19T00:59:29.248Z,17.17
2023-03-19T01:03:32.234Z,15.57
2023-03-19T01:07:34.021Z,16.40
2023-03-19T01:11:36.257Z,15.40
2023-03-19T01:15:43.232Z,17.50
2023-03-19T01:19:45.045Z,16.37
2023-03-19T01:23:46.895Z,14.80
2023-03-19T01:27:48.837Z,16.93
2023-03-19T01:31:51.374Z,17.13
2023-03-19T01:35:53.507Z,14.67
2023-03-19T01:39:55.359Z,16.17
2023-03-19T01:43:57.277Z,16.63
2023-03-19T01:47:59.164Z,17.33
2023-03-19T01:52:02.713Z,17.90
2023-03-19T01:56:14.946Z,17.10
2023-03-19T02:00:17.236Z,14.50
2023-03-19T02:04:19.299Z,16.87
2023-03-19T02:08:23.123Z,15.47
2023-03-19T02:12:24.996Z,14.80
2023-03-19T02:16:27.246Z,14.80
2023-03-19T02:20:59.533Z,14.43
2023-03-19T02:25:14.703Z,13.87
2023-03-19T02:29:16.629Z,17.43
2023-03-19T02:33:18.956Z,15.53
2023-03-19T02:37:27.571Z,14.70
2023-03-19T02:41:30.040Z,17.60
2023-03-19T02:45:32.271Z,17.73
2023-03-19T02:49:34.152Z,17.10
2023-03-19T02:53:36.236Z,16.70
2023-03-19T02:57:38.050Z,16.73
2023-03-19T03:01:40.043Z,15.80
2023-03-19T03:05:48.658Z,14.30
2023-03-19T03:09:56.982Z,16.97
2023-03-19T03:14:11.650Z,15.67
2023-03-19T03:18:19.697Z,15.47
2023-03-19T03:22:27.725Z,14.53
2023-03-19T03:26:35.945Z,18.13
2023-03-19T03:30:38.216Z,17.47
2023-03-19T03:34:41.163Z,16.07
2023-03-19T03:38:42.973Z,17.00
2023-03-19T03:42:44.899Z,14.30
2023-03-19T03:46:46.774Z,17.20
2023-03-19T03:50:50.833Z,13.63
2023-03-19T03:54:52.855Z,17.23
2023-03-19T03:58:55.826Z,17.23
2023-03-19T04:02:57.735Z,16.13
2023-03-19T04:06:59.856Z,13.50
2023-03-19T04:11:07.190Z,16.17
2023-03-19T04:15:10.984Z,16.83
2023-03-19T04:19:12.814Z,16.93
2023-03-19T04:23:14.774Z,15.60
2023-03-19T04:27:16.655Z,15.33
2023-03-19T04:31:18.527Z,15.03
2023-03-19T04:35:21.597Z,16.77
2023-03-19T04:39:24.408Z,15.00
2023-03-19T04:43:26.237Z,14.67
2023-03-19T04:47:28.085Z,15.47
2023-03-19T04:51:29.896Z,14.27
2023-03-19T04:55:32.507Z,17.77
2023-03-19T04:59:34.358Z,16.13
2023-03-19T05:03:36.299Z,15.40
2023-03-19T05:07:38.118Z,14.53
2023-03-19T05:11:40.004Z,15.20
2023-03-19T05:15:43.666Z,15.97
2023-03-19T05:19:45.963Z,15.63
2023-03-19T05:23:57.194Z,15.03
2023-03-19T05:28:03.517Z,13.93
2023-03-19T05:32:07.105Z,16.47
2023-03-19T05:36:11.922Z,16.97
2023-03-19T05:40:18.454Z,15.33
2023-03-19T05:44:21.351Z,14.80
2023-03-19T05:48:23.603Z,14.40
2023-03-19T05:52:25.705Z,16.37
2023-03-19T05:56:27.776Z,12.70
2023-03-19T06:00:29.807Z,14.93
2023-03-19T06:04:31.769Z,13.60
2023-03-19T06:08:34.130Z,17.83
2023-03-19T06:12:36.327Z,13.50
2023-03-19T06:16:38.547Z,14.43
2023-03-19T06:20:40.455Z,15.43
2023-03-19T06:24:44.753Z,13.77
2023-03-19T06:28:46.954Z,12.70
2023-03-19T06:32:49.058Z,12.97
2023-03-19T06:36:51.082Z,14.80
2023-03-19T06:40:53.081Z,15.20
2023-03-19T06:44:54.866Z,12.70
2023-03-19T06:48:59.817Z,13.50
2023-03-19T06:53:04.514Z,15.27
2023-03-19T06:57:06.633Z,14.50
2023-03-19T07:01:09.224Z,14.30
2023-03-19T07:05:11.245Z,13.13
2023-03-19T07:09:13.284Z,15.30
2023-03-19T07:13:15.523Z,14.10
2023-03-19T07:17:17.466Z,12.70
2023-03-19T07:21:19.333Z,13.07
2023-03-19T07:25:21.462Z,13.20
2023-03-19T07:29:24.073Z,13.87
2023-03-19T07:33:26.350Z,14.10
2023-03-19T07:37:28.678Z,13.70
2023-03-19T07:41:34.001Z,12.67
2023-03-19T07:45:36.806Z,13.80
2023-03-19T07:49:40.240Z,14.40
2023-03-19T07:53:44.870Z,12.93
2023-03-19T07:57:46.826Z,11.97
2023-03-19T08:01:49.322Z,12.13
2023-03-19T08:05:52.784Z,13.90
2023-03-19T08:09:55.116Z,13.63
2023-03-19T08:14:00.826Z,11.50
2023-03-19T08:18:04.979Z,11.47
2023-03-19T08:22:07.504Z,12.70
2023-03-19T08:26:09.447Z,13.80
2023-03-19T08:30:12.701Z,12.37
2023-03-19T08:34:17.585Z,13.50
2023-03-19T08:38:20.129Z,11.40
2023-03-19T08:42:22.744Z,11.57
2023-03-19T08:46:29.100Z,13.30
2023-03-19T08:50:32.630Z,12.47
2023-03-19T08:54:37.800Z,13.77
2023-03-19T08:58:41.626Z,15.20
2023-03-19T09:02:43.820Z,13.00
2023-03-19T09:06:53.047Z,11.30
2023-03-19T09:10:56.452Z,14.63
2023-03-19T09:15:01.313Z,11.90
2023-03-19T09:19:03.222Z,13.23
2023-03-19T09:23:05.466Z,15.50
2023-03-19T09:27:07.327Z,13.77
2023-03-19T09:31:11.657Z,13.00
2023-03-19T09:35:13.887Z,13.87
2023-03-19T09:39:18.382Z,13.23
2023-03-19T09:44:21.606Z,13.27
2023-03-19T09:48:36.203Z,13.07
2023-03-19T09:53:00.330Z,12.77
2023-03-19T09:57:02.663Z,13.57
2023-03-19T10:01:05.072Z,14.33
2023-03-19T10:05:22.738Z,14.13
2023-03-19T10:09:58.097Z,11.67
2023-03-19T10:14:33.063Z,12.60
2023-03-19T10:18:36.266Z,13.23
2023-03-19T10:22:46.424Z,13.27
2023-03-19T10:26:48.471Z,14.20
2023-03-19T10:31:21.271Z,13.87
2023-03-19T10:35:28.947Z,13.07
2023-03-19T10:39:39.741Z,12.33
2023-03-19T10:44:11.874Z,13.27
2023-03-19T10:48:22.559Z,13.60
2023-03-19T10:52:32.097Z,12.13
2023-03-19T10:56:41.060Z,12.77
2023-03-19T11:01:28.504Z,11.83
2023-03-19T11:05:36.788Z,13.10
2023-03-19T11:09:58.761Z,12.60
2023-03-19T11:14:33.614Z,13.27
2023-03-19T11:18:47.322Z,14.00
2023-03-19T11:23:04.744Z,14.53
2023-03-19T11:27:08.349Z,13.70
2023-03-19T11:31:27.577Z,13.60
2023-03-19T11:35:54.989Z,13.60
2023-03-19T11:40:47.917Z,15.40
2023-03-19T11:45:39.193Z,11.30
2023-03-19T11:49:54.474Z,14.13
2023-03-19T11:54:40.827Z,14.27
2023-03-19T11:58:53.764Z,12.90
2023-03-19T12:03:15.402Z,12.63
2023-03-19T12:07:26.608Z,13.97
2023-03-19T12:11:45.546Z,13.20
2023-03-19T12:16:02.362Z,12.93
2023-03-19T12:20:27.895Z,11.80
2023-03-19T12:24:57.823Z,13.77
2023-03-19T12:29:18.602Z,13.07
2023-03-19T12:34:01.831Z,12.30
2023-03-19T12:38:17.649Z,12.97
2023-03-19T12:42:20.148Z,14.23
2023-03-19T12:46:34.525Z,14.60
2023-03-19T12:50:38.302Z,13.40
2023-03-19T12:55:00.663Z,12.90
2023-03-19T12:59:57.606Z,12.77
2023-03-19T13:04:24.720Z,14.07
2023-03-19T13:09:17.690Z,14.57
2023-03-19T13:13:46.524Z,11.53
2023-03-19T13:18:17.990Z,13.50
2023-03-19T13:22:28.517Z,12.10
2023-03-19T13:26:31.150Z,13.83
2023-03-19T13:30:33.314Z,12.67
2023-03-19T13:34:36.978Z,15.13
2023-03-19T13:38:51.991Z,11.93
2023-03-19T13:42:57.690Z,13.53
2023-03-19T13:47:23.228Z,12.47
2023-03-19T13:51:27.073Z,14.87
2023-03-19T13:55:34.437Z,13.87
2023-03-19T13:59:36.979Z,13.73
2023-03-19T14:04:03.080Z,13.30
2023-03-19T14:08:17.298Z,14.70
2023-03-19T14:12:21.367Z,15.07
2023-03-19T14:16:26.722Z,13.63
2023-03-19T14:20:53.866Z,13.97
2023-03-19T14:25:19.648Z,13.33
2023-03-19T14:29:21.600Z,13.40
2023-03-19T14:33:33.067Z,15.30
2023-03-19T14:37:49.074Z,14.60
2023-03-19T14:41:59.425Z,13.50
2023-03-19T14:46:04.237Z,12.90
2023-03-19T14:50:41.475Z,15.90
2023-03-19T14:54:58.739Z,13.07
2023-03-19T14:59:07.872Z,13.93
2023-03-19T15:03:37.279Z,14.67
2023-03-19T15:07:48.614Z,14.47
2023-03-19T15:12:33.722Z,13.67
2023-03-19T15:16:57.495Z,12.10
2023-03-19T15:21:24.559Z,13.13
2023-03-19T15:25:39.704Z,13.83
2023-03-19T15:29:41.807Z,12.10
2023-03-19T15:33:46.224Z,8.63
2023-03-19T15:37:52.151Z,3.93
2023-03-19T15:41:54.355Z,3.77
2023-03-19T15:45:59.454Z,3.90
2023-03-19T15:50:14.713Z,2.70
2023-03-19T15:54:16.658Z,4.13
2023-03-19T15:58:31.253Z,3.20
2023-03-19T16:02:34.949Z,3.97
2023-03-19T16:06:39.685Z,2.67
2023-03-19T16:10:45.762Z,4.97
2023-03-19T16:14:47.595Z,3.80
2023-03-19T16:18:55.509Z,4.03
2023-03-19T16:23:00.374Z,3.77
2023-03-19T16:27:08.949Z,2.83
2023-03-19T16:31:24.339Z,4.07
2023-03-19T16:35:27.184Z,3.27
2023-03-19T16:39:37.327Z,3.97
2023-03-19T16:43:40.467Z,5.17
2023-03-19T16:48:03.531Z,5.03
2023-03-19T16:52:05.698Z,4.27
2023-03-19T16:56:09.508Z,3.13
2023-03-19T17:00:15.072Z,4.93
2023-03-19T17:04:17.809Z,3.33
2023-03-19T17:08:21.912Z,3.73
2023-03-19T17:12:24.432Z,3.43
2023-03-19T17:16:29.563Z,3.97
2023-03-19T17:20:36.487Z,3.67
2023-03-19T17:24:41.538Z,4.57
2023-03-19T17:28:43.702Z,4.30
2023-03-19T17:32:51.245Z,4.33
2023-03-19T17:37:02.454Z,2.97
2023-03-19T17:41:21.165Z,3.93
2023-03-19T17:45:29.915Z,3.40
2023-03-19T17:49:34.185Z,3.80
2023-03-19T17:53:39.104Z,2.50
2023-03-19T17:57:41.561Z,3.60
2023-03-19T18:01:43.752Z,5.03
2023-03-19T18:05:53.788Z,2.57
2023-03-19T18:09:58.503Z,2.87
2023-03-19T18:14:06.113Z,3.80
2023-03-19T18:18:13.924Z,3.50
2023-03-19T18:22:22.935Z,3.17
2023-03-19T18:26:26.071Z,5.20
2023-03-19T18:30:29.789Z,3.43
2023-03-19T18:34:37.476Z,4.63
2023-03-19T18:38:39.664Z,3.70
2023-03-19T18:42:56.471Z,4.53
2023-03-19T18:46:59.596Z,4.50
2023-03-19T18:51:12.398Z,3.27
2023-03-19T18:55:17.624Z,3.50
2023-03-19T18:59:32.164Z,3.40
2023-03-19T19:03:37.931Z,4.40
2023-03-19T19:07:47.059Z,4.10
2023-03-19T19:11:49.034Z,3.43
2023-03-19T19:15:59.967Z,4.37
2023-03-19T19:20:03.099Z,4.90
2023-03-19T19:24:08.570Z,4.80
2023-03-19T19:28:26.730Z,4.47
2023-03-19T19:32:32.000Z,4.23
2023-03-19T19:36:37.160Z,4.27
2023-03-19T19:40:40.350Z,4.67
2023-03-19T19:44:43.975Z,4.70
2023-03-19T19:48:48.529Z,6.63
2023-03-19T19:52:50.682Z,6.57
2023-03-19T19:57:03.914Z,5.93
2023-03-19T20:01:30.048Z,7.07
2023-03-19T20:05:34.906Z,5.57
2023-03-19T20:09:37.040Z,6.00
2023-03-19T20:13:41.325Z,5.20
2023-03-19T20:17:44.034Z,5.00
2023-03-19T20:21:46.214Z,5.83
2023-03-19T20:25:52.473Z,5.87
2023-03-19T20:29:57.347Z,7.17
2023-03-19T20:34:02.468Z,5.90
2023-03-19T20:38:06.297Z,6.33
2023-03-19T20:42:15.208Z,7.80
2023-03-19T20:46:21.564Z,6.57
2023-03-19T20:50:29.840Z,8.60
2023-03-19T20:54:32.278Z,6.73
2023-03-19T20:58:36.847Z,7.60
2023-03-19T21:02:41.077Z,7.73
2023-03-19T21:06:53.058Z,7.37
2023-03-19T21:10:56.011Z,6.70
2023-03-19T21:15:00.325Z,7.40
2023-03-19T21:19:07.827Z,7.40
2023-03-19T21:23:32.090Z,7.60
2023-03-19T21:27:36.311Z,8.13
2023-03-19T21:31:39.404Z,7.13
2023-03-19T21:35:41.746Z,7.33
2023-03-19T21:39:44.057Z,7.40
2023-03-19T21:43:52.882Z,7.50
2023-03-19T21:48:34.633Z,7.90
2023-03-19T21:52:53.667Z,7.07
2023-03-19T21:56:58.613Z,9.03
2023-03-19T22:01:01.193Z,6.70
2023-03-19T22:05:03.831Z,6.00
2023-03-19T22:09:06.020Z,6.33
2023-03-19T22:13:26.429Z,7.00
2023-03-19T22:17:32.180Z,6.70
2023-03-19T22:21:34.016Z,6.83
2023-03-19T22:25:39.964Z,5.83
2023-03-19T22:29:47.109Z,6.30
2023-03-19T22:33:49.002Z,6.33
2023-03-19T22:37:51.069Z,6.23
2023-03-19T22:41:53.197Z,6.47
2023-03-19T22:45:59.228Z,5.53
2023-03-19T22:50:01.233Z,6.37
2023-03-19T22:54:05.329Z,5.97
2023-03-19T22:58:07.502Z,5.53
2023-03-19T23:02:14.245Z,4.83
2023-03-19T23:06:29.768Z,5.37
2023-03-19T23:10:32.831Z,5.47
2023-03-19T23:14:34.828Z,4.70
2023-03-19T23:18:37.082Z,4.83
2023-03-19T23:22:38.983Z,5.03
2023-03-19T23:26:46.712Z,7.10
2023-03-19T23:30:50.348Z,7.37
2023-03-19T23:35:00.524Z,8.20
2023-03-19T23:39:04.668Z,5.83
2023-03-19T23:43:07.537Z,6.57
2023-03-19T23:47:09.435Z,7.20
2023-03-19T23:51:14.944Z,14.80
2023-03-19T23:55:17.124Z,10.33
2023-03-19T23:59:18.977Z,6.10
